Aviation Digital Data Service (ADDS)

Output produced by METARs form (1309 UTC 21 April 2015)
found at http://aviationweather.gov/adds/metars/
 
KSSI 211257Z 2113/2212 27006KT P6SM SCT250 
     FM211500 32007KT P6SM SCT250 
     FM211900 12005KT P6SM SKC 
     FM220000 VRB04KT P6SM SKC